createdAt,value
2024-02-07T00:00:44.758Z,90.10
2024-02-07T00:06:07.905Z,89.99
2024-02-07T00:11:11.129Z,89.85
2024-02-07T00:16:15.400Z,89.71
2024-02-07T00:21:18.561Z,89.58
2024-02-07T00:26:21.565Z,89.44
2024-02-07T00:31:25.427Z,89.29
2024-02-07T00:36:28.499Z,89.12
2024-02-07T00:41:31.908Z,88.96
2024-02-07T00:46:35.225Z,88.86
2024-02-07T00:51:38.842Z,88.85
2024-02-07T00:56:41.850Z,88.87
2024-02-07T01:02:17.754Z,88.92
2024-02-07T01:07:21.892Z,86.61
2024-02-07T01:12:25.083Z,86.17
2024-02-07T01:17:28.624Z,86.78
2024-02-07T01:22:32.247Z,86.50
2024-02-07T01:27:35.632Z,86.12
2024-02-07T01:32:43.386Z,86.98
2024-02-07T01:37:47.709Z,87.74
2024-02-07T01:42:51.520Z,88.17
2024-02-07T01:47:54.686Z,88.56
2024-02-07T01:53:03.789Z,88.50
2024-02-07T01:58:07.092Z,88.34
2024-02-07T02:03:10.329Z,88.22
2024-02-07T02:08:13.820Z,88.16
2024-02-07T02:13:18.197Z,88.12
2024-02-07T02:18:21.372Z,88.13
2024-02-07T02:23:47.817Z,88.19
2024-02-07T02:28:54.895Z,88.27
2024-02-07T02:33:59.535Z,88.34
2024-02-07T02:39:07.111Z,88.43
2024-02-07T02:44:10.461Z,88.50
2024-02-07T02:49:13.679Z,88.59
2024-02-07T02:54:17.330Z,88.62
2024-02-07T02:59:22.170Z,88.60
2024-02-07T03:04:27.778Z,88.62
2024-02-07T03:09:32.249Z,88.68
2024-02-07T03:14:36.014Z,88.71
2024-02-07T03:19:39.049Z,88.78
2024-02-07T03:24:43.259Z,88.84
2024-02-07T03:29:46.361Z,88.92
2024-02-07T03:34:49.496Z,88.98
2024-02-07T03:39:52.581Z,88.99
2024-02-07T03:44:58.362Z,89.05
2024-02-07T03:50:06.017Z,89.08
2024-02-07T03:55:09.789Z,89.13
2024-02-07T04:00:17.026Z,89.19
2024-02-07T04:05:20.616Z,89.30
2024-02-07T04:10:25.685Z,89.39
2024-02-07T04:15:47.424Z,89.43
2024-02-07T04:21:10.941Z,89.41
2024-02-07T04:26:39.317Z,89.43
2024-02-07T04:32:01.059Z,89.43
2024-02-07T04:37:23.075Z,89.40
2024-02-07T04:42:44.716Z,89.37
2024-02-07T04:48:06.833Z,89.36
2024-02-07T04:53:28.556Z,89.32
2024-02-07T04:58:50.308Z,89.28
2024-02-07T05:04:12.343Z,89.25
2024-02-07T05:09:34.301Z,89.16
2024-02-07T05:14:49.377Z,89.09
2024-02-07T05:19:53.190Z,89.03
2024-02-07T05:24:56.322Z,88.96
2024-02-07T05:29:59.332Z,88.89
2024-02-07T05:35:02.644Z,88.79
2024-02-07T05:40:06.739Z,88.72
2024-02-07T05:45:10.308Z,88.69
2024-02-07T05:50:13.745Z,88.69
2024-02-07T05:55:16.940Z,88.70
2024-02-07T06:00:20.246Z,88.78
2024-02-07T06:05:23.636Z,88.83
2024-02-07T06:10:26.917Z,88.87
2024-02-07T06:15:30.086Z,88.90
2024-02-07T06:20:33.415Z,88.93
2024-02-07T06:25:36.840Z,88.95
2024-02-07T06:30:40.128Z,89.06
2024-02-07T06:35:43.646Z,89.14
2024-02-07T06:40:46.917Z,89.17
2024-02-07T06:45:50.084Z,89.14
2024-02-07T06:50:53.382Z,89.12
2024-02-07T06:55:59.965Z,89.07
2024-02-07T07:01:04.168Z,88.89
2024-02-07T07:06:07.773Z,88.76
2024-02-07T07:11:11.136Z,88.68
2024-02-07T07:16:14.428Z,88.59
2024-02-07T07:21:17.982Z,88.49
2024-02-07T07:26:22.316Z,88.43
2024-02-07T07:31:27.033Z,88.25
2024-02-07T07:36:30.493Z,88.20
2024-02-07T07:41:35.040Z,88.07
2024-02-07T07:46:38.692Z,87.87
2024-02-07T07:51:42.880Z,87.70
2024-02-07T07:56:46.101Z,87.53
2024-02-07T08:01:57.679Z,87.38
2024-02-07T08:07:00.942Z,87.06
2024-02-07T08:12:05.028Z,86.91
2024-02-07T08:17:08.550Z,86.72
2024-02-07T08:22:11.958Z,86.41
2024-02-07T08:27:15.398Z,86.26
2024-02-07T08:32:18.614Z,86.05
2024-02-07T08:37:23.538Z,85.95
2024-02-07T08:42:27.016Z,85.93
2024-02-07T08:47:30.755Z,85.59
2024-02-07T08:52:34.028Z,85.12
2024-02-07T08:57:37.924Z,84.26
2024-02-07T09:02:41.090Z,83.90
2024-02-07T09:07:44.454Z,83.41
2024-02-07T09:12:47.902Z,82.77
2024-02-07T09:17:51.336Z,81.87
2024-02-07T09:22:54.585Z,81.34
2024-02-07T09:27:59.050Z,81.01
2024-02-07T09:33:02.489Z,80.53
2024-02-07T09:38:05.898Z,80.10
2024-02-07T09:43:10.633Z,79.98
2024-02-07T09:48:23.041Z,80.24
2024-02-07T09:53:28.085Z,80.38
2024-02-07T09:58:32.256Z,80.81
2024-02-07T10:03:38.753Z,80.88
2024-02-07T10:08:48.361Z,81.03
2024-02-07T10:13:51.630Z,81.18
2024-02-07T10:18:55.327Z,81.12
2024-02-07T10:23:58.440Z,81.26
2024-02-07T10:29:03.397Z,81.25
2024-02-07T10:34:19.738Z,81.10
2024-02-07T10:39:23.031Z,81.02
2024-02-07T10:44:26.338Z,80.61
2024-02-07T10:49:30.205Z,80.88
2024-02-07T10:54:33.487Z,81.28
2024-02-07T10:59:40.415Z,81.17
2024-02-07T11:04:46.863Z,79.66
2024-02-07T11:09:50.396Z,81.65
2024-02-07T11:14:55.741Z,83.39
2024-02-07T11:19:59.211Z,84.54
2024-02-07T11:25:03.980Z,85.20
2024-02-07T11:30:11.928Z,85.39
2024-02-07T11:35:15.781Z,85.42
2024-02-07T11:40:20.795Z,85.18
2024-02-07T11:45:24.126Z,84.91
2024-02-07T11:50:27.342Z,84.70
2024-02-07T11:55:41.636Z,84.58
2024-02-07T12:00:46.422Z,84.45
2024-02-07T12:05:50.433Z,84.32
2024-02-07T12:10:53.700Z,84.19
2024-02-07T12:16:01.148Z,84.04
2024-02-07T12:21:06.120Z,83.80
2024-02-07T12:26:09.663Z,83.58
2024-02-07T12:31:13.001Z,83.54
2024-02-07T12:36:17.337Z,82.85
2024-02-07T12:41:20.999Z,82.76
2024-02-07T12:46:24.811Z,82.61
2024-02-07T12:51:28.610Z,82.54
2024-02-07T12:56:31.930Z,82.60
2024-02-07T13:01:35.432Z,82.23
2024-02-07T13:06:42.245Z,82.39
2024-02-07T13:11:45.558Z,82.13
2024-02-07T13:16:52.647Z,82.04
2024-02-07T13:21:56.389Z,81.72
2024-02-07T13:27:02.903Z,81.45
2024-02-07T13:32:11.760Z,80.96
2024-02-07T13:37:15.723Z,81.02
2024-02-07T13:42:21.902Z,81.23
2024-02-07T13:47:25.622Z,81.47
2024-02-07T13:52:29.140Z,81.81
2024-02-07T13:57:32.879Z,81.13
2024-02-07T14:02:36.210Z,80.75
2024-02-07T14:07:39.549Z,82.64
2024-02-07T14:12:42.934Z,84.08
2024-02-07T14:17:46.385Z,85.14
2024-02-07T14:22:49.904Z,85.48
2024-02-07T14:27:53.200Z,85.71
2024-02-07T14:32:56.489Z,85.81
2024-02-07T14:38:00.083Z,85.79
2024-02-07T14:43:03.538Z,85.93
2024-02-07T14:48:07.521Z,86.11
2024-02-07T14:53:10.933Z,86.44
2024-02-07T14:58:14.391Z,86.51
2024-02-07T15:03:17.735Z,86.54
2024-02-07T15:08:21.222Z,86.65
2024-02-07T15:13:24.732Z,86.74
2024-02-07T15:18:28.215Z,87.04
2024-02-07T15:23:31.615Z,87.10
2024-02-07T15:28:35.184Z,87.05
2024-02-07T15:33:42.155Z,87.10
2024-02-07T15:38:47.992Z,87.21
2024-02-07T15:43:51.930Z,87.24
2024-02-07T15:49:02.595Z,87.16
2024-02-07T15:54:12.775Z,87.05
2024-02-07T15:59:17.513Z,87.05
2024-02-07T16:04:21.180Z,87.10
2024-02-07T16:09:25.585Z,87.43
2024-02-07T16:14:29.912Z,87.60
2024-02-07T16:19:33.591Z,87.75
2024-02-07T16:24:37.472Z,88.05
2024-02-07T16:29:40.891Z,88.24
2024-02-07T16:34:45.564Z,88.19
2024-02-07T16:39:50.427Z,87.94
2024-02-07T16:44:53.789Z,87.56
2024-02-07T16:49:57.223Z,87.21
2024-02-07T16:55:00.967Z,86.85
2024-02-07T17:00:05.222Z,86.71
2024-02-07T17:05:11.657Z,86.66
2024-02-07T17:10:17.651Z,86.79
2024-02-07T17:15:20.843Z,86.96
2024-02-07T17:20:24.562Z,87.02
2024-02-07T17:25:27.998Z,87.26
2024-02-07T17:30:36.735Z,87.29
2024-02-07T17:35:41.162Z,87.25
2024-02-07T17:40:46.203Z,87.17
2024-02-07T17:45:49.428Z,87.09
2024-02-07T17:50:52.672Z,87.01
2024-02-07T17:55:56.077Z,87.01
2024-02-07T18:00:59.524Z,86.97
2024-02-07T18:06:02.995Z,86.93
2024-02-07T18:11:06.692Z,86.79
2024-02-07T18:16:10.064Z,86.65
2024-02-07T18:21:13.356Z,86.40
2024-02-07T18:26:16.777Z,86.02
2024-02-07T18:31:20.119Z,86.16
2024-02-07T18:36:23.498Z,86.16
2024-02-07T18:41:27.607Z,86.23
2024-02-07T18:46:30.974Z,86.06
2024-02-07T18:51:35.054Z,85.96
2024-02-07T18:56:38.378Z,85.83
2024-02-07T19:01:42.506Z,85.66
2024-02-07T19:06:46.178Z,85.62
2024-02-07T19:11:53.745Z,85.43
2024-02-07T19:16:57.678Z,85.03
2024-02-07T19:22:01.200Z,84.41
2024-02-07T19:27:05.023Z,84.94
2024-02-07T19:32:12.374Z,84.79
2024-02-07T19:37:15.996Z,84.78
2024-02-07T19:42:19.364Z,84.65
2024-02-07T19:47:22.587Z,84.81
2024-02-07T19:52:25.906Z,84.75
2024-02-07T19:57:29.192Z,84.69
2024-02-07T20:02:32.738Z,84.62
2024-02-07T20:07:36.304Z,84.54
2024-02-07T20:12:39.760Z,84.60
2024-02-07T20:17:46.066Z,84.72
2024-02-07T20:22:49.533Z,84.65
2024-02-07T20:27:53.174Z,84.67
2024-02-07T20:32:56.843Z,84.75
2024-02-07T20:38:00.689Z,84.93
2024-02-07T20:43:05.309Z,84.98
2024-02-07T20:48:09.251Z,85.17
2024-02-07T20:53:14.427Z,85.50
2024-02-07T20:58:17.678Z,85.71
2024-02-07T21:03:20.969Z,85.79
2024-02-07T21:08:24.522Z,85.78
2024-02-07T21:13:28.720Z,85.76
2024-02-07T21:18:32.028Z,85.63
2024-02-07T21:23:35.381Z,85.40
2024-02-07T21:28:41.827Z,85.27
2024-02-07T21:33:47.357Z,85.20
2024-02-07T21:38:50.544Z,85.26
2024-02-07T21:43:53.794Z,85.33
2024-02-07T21:48:57.249Z,85.44
2024-02-07T21:54:00.605Z,85.55
2024-02-07T21:59:03.972Z,85.60
2024-02-07T22:04:07.338Z,85.66
2024-02-07T22:09:10.541Z,85.76
2024-02-07T22:14:13.837Z,85.75
2024-02-07T22:19:17.063Z,85.76
2024-02-07T22:24:20.263Z,85.74
2024-02-07T22:29:23.694Z,85.76
2024-02-07T22:34:26.970Z,85.72
2024-02-07T22:39:30.204Z,85.66
2024-02-07T22:44:33.514Z,85.54
2024-02-07T22:49:37.673Z,85.44
2024-02-07T22:54:41.075Z,85.43
2024-02-07T22:59:44.283Z,85.30
2024-02-07T23:04:47.725Z,85.17
2024-02-07T23:09:50.905Z,85.14
2024-02-07T23:14:54.023Z,85.02
2024-02-07T23:19:57.159Z,84.78
2024-02-07T23:25:00.354Z,84.67
2024-02-07T23:30:03.654Z,84.54
2024-02-07T23:35:07.139Z,84.54
2024-02-07T23:40:10.983Z,84.51
2024-02-07T23:45:14.457Z,84.57
2024-02-07T23:50:17.860Z,84.55
2024-02-07T23:55:21.040Z,84.58
